createdAt,value
2017-10-04T00:00:03.009Z,9.1
2017-10-04T00:15:02.935Z,8.9
2017-10-04T00:30:02.755Z,9.1
2017-10-04T00:45:04.107Z,9.1
2017-10-04T01:00:02.971Z,9
2017-10-04T01:15:02.853Z,8.9
2017-10-04T01:30:02.943Z,8.8
2017-10-04T01:45:02.891Z,8.5
2017-10-04T02:00:07.054Z,8.5
2017-10-04T02:15:03.091Z,8.1
2017-10-04T02:30:02.994Z,7.9
2017-10-04T02:45:02.783Z,7.9
2017-10-04T03:00:04.809Z,7.6
2017-10-04T03:15:04.780Z,7.4
2017-10-04T03:30:06.233Z,7.2
2017-10-04T03:45:03.126Z,7.4
2017-10-04T04:00:03.330Z,7.1
2017-10-04T04:15:04.000Z,6.8
2017-10-04T04:30:02.907Z,6.8
2017-10-04T04:45:03.528Z,6.4
2017-10-04T05:00:03.389Z,6.4
2017-10-04T05:15:03.195Z,6.6
2017-10-04T05:30:03.075Z,6.6
2017-10-04T05:45:02.804Z,6.9
2017-10-04T06:00:03.538Z,7
2017-10-04T06:15:02.750Z,7.1
2017-10-04T06:30:02.746Z,7.3
2017-10-04T06:45:04.271Z,7.5
2017-10-04T07:00:03.135Z,7.7
2017-10-04T07:15:03.155Z,8.1
2017-10-04T07:30:02.983Z,8.4
2017-10-04T07:45:02.926Z,9
2017-10-04T08:00:04.805Z,9.6
2017-10-04T08:15:03.957Z,10.4
2017-10-04T08:30:02.993Z,10.9
2017-10-04T08:45:03.285Z,12.1
2017-10-04T09:00:03.380Z,12.5
2017-10-04T09:15:04.846Z,12.7
2017-10-04T09:30:02.863Z,12.9
2017-10-04T09:45:02.829Z,13.2
2017-10-04T10:00:02.997Z,14.7
2017-10-04T10:15:02.721Z,15.2
2017-10-04T10:30:03.388Z,15
2017-10-04T10:45:03.194Z,15.3
2017-10-04T11:00:03.337Z,16.4
2017-10-04T11:15:03.575Z,16.8
2017-10-04T11:30:04.138Z,16.9
2017-10-04T11:45:03.646Z,17.1
2017-10-04T12:00:04.890Z,16.8
2017-10-04T12:15:04.643Z,16.6
2017-10-04T12:30:04.682Z,16.8
2017-10-04T12:45:04.090Z,16.6
2017-10-04T13:00:02.826Z,16.6
2017-10-04T13:15:04.189Z,17.2
2017-10-04T13:30:03.115Z,17.2
2017-10-04T13:45:03.425Z,17.2
2017-10-04T14:00:03.499Z,17.3
2017-10-04T14:15:03.505Z,17.1
2017-10-04T14:30:03.481Z,16.2
2017-10-04T14:45:03.757Z,16.1
2017-10-04T15:00:03.606Z,15.6
2017-10-04T15:15:03.402Z,15.4
2017-10-04T15:30:03.819Z,15.5
2017-10-04T15:45:03.772Z,15
2017-10-04T16:00:02.751Z,14.7
2017-10-04T16:15:04.083Z,14
2017-10-04T16:30:02.971Z,13.2
2017-10-04T16:45:03.286Z,12.7
2017-10-04T17:00:03.057Z,12.3
2017-10-04T17:15:02.854Z,11.9
2017-10-04T17:30:02.709Z,11.4
2017-10-04T17:45:03.381Z,11.2
2017-10-04T18:00:03.259Z,11.1
2017-10-04T18:15:03.078Z,11
2017-10-04T18:30:03.642Z,10.8
2017-10-04T18:45:02.636Z,10.6
2017-10-04T19:00:03.395Z,10.3
2017-10-04T19:15:03.410Z,10.2
2017-10-04T19:30:03.298Z,10.2
2017-10-04T19:45:03.066Z,10.3
2017-10-04T20:00:02.806Z,10.3
2017-10-04T20:15:03.620Z,10.4
2017-10-04T20:30:03.466Z,10.4
2017-10-04T20:45:03.229Z,10.3
2017-10-04T21:00:03.077Z,10.2
2017-10-04T21:15:02.821Z,10.3
2017-10-04T21:30:04.066Z,10.1
2017-10-04T21:45:02.938Z,10.2
2017-10-04T22:00:02.647Z,10.3
2017-10-04T22:15:03.690Z,10.3
2017-10-04T22:30:03.926Z,10.2
2017-10-04T22:45:04.301Z,9.9
2017-10-04T23:00:03.579Z,10
2017-10-04T23:15:04.211Z,10
2017-10-04T23:30:02.995Z,10.1
2017-10-04T23:45:02.827Z,10.1
